createdAt,value
2019-05-02T00:02:28.848Z,94049.37
2019-05-02T00:04:55.871Z,94041.44
2019-05-02T00:07:22.140Z,94038.64
2019-05-02T00:09:50.404Z,94041.67
2019-05-02T00:12:17.745Z,94032.56
2019-05-02T00:14:46.391Z,94036.17
2019-05-02T00:17:13.730Z,94032.56
2019-05-02T00:19:40.384Z,94035.13
2019-05-02T00:22:07.543Z,94029.20
2019-05-02T00:24:39.217Z,94026.70
2019-05-02T00:27:04.718Z,94032.33
2019-05-02T00:29:31.354Z,94025.67
2019-05-02T00:31:57.968Z,94023.34
2019-05-02T00:34:24.446Z,94016.70
2019-05-02T00:36:51.021Z,94012.59
2019-05-02T00:39:19.456Z,94011.02
2019-05-02T00:41:46.031Z,94008.24
2019-05-02T00:44:12.557Z,94009.88
2019-05-02T00:46:39.318Z,93999.23
2019-05-02T00:49:05.864Z,94002.89
2019-05-02T00:51:32.413Z,93995.94
2019-05-02T00:53:58.962Z,93996.45
2019-05-02T00:56:25.916Z,93996.23
2019-05-02T00:58:52.454Z,93995.64
2019-05-02T01:01:29.571Z,93993.97
2019-05-02T01:03:55.104Z,93993.67
2019-05-02T01:06:21.937Z,93987.95
2019-05-02T01:08:48.528Z,93984.77
2019-05-02T01:11:15.062Z,93997.97
2019-05-02T01:13:41.614Z,93989.38
2019-05-02T01:16:08.442Z,93979.72
2019-05-02T01:18:37.105Z,93983.94
2019-05-02T01:21:04.191Z,93987.83
2019-05-02T01:23:30.887Z,93985.68
2019-05-02T01:25:57.522Z,93983.72
2019-05-02T01:28:26.073Z,93983.20
2019-05-02T01:30:59.166Z,93985.45
2019-05-02T01:33:27.620Z,93988.11
2019-05-02T01:36:06.117Z,93983.72
2019-05-02T01:38:33.674Z,93983.30
2019-05-02T01:41:00.385Z,93977.97
2019-05-02T01:43:29.562Z,93975.83
2019-05-02T01:45:56.181Z,93977.16
2019-05-02T01:48:23.236Z,93981.42
2019-05-02T01:50:49.866Z,93975.59
2019-05-02T01:53:16.418Z,93975.19
2019-05-02T01:55:43.046Z,93975.41
2019-05-02T01:58:09.681Z,93972.53
2019-05-02T02:00:36.210Z,93971.30
2019-05-02T02:03:04.237Z,93965.85
2019-05-02T02:05:32.328Z,93972.08
2019-05-02T02:07:59.966Z,93974.50
2019-05-02T02:10:26.493Z,93964.07
2019-05-02T02:13:03.428Z,93970.63
2019-05-02T02:15:25.131Z,93972.48
2019-05-02T02:17:51.463Z,93972.39
2019-05-02T02:20:20.259Z,93969.33
2019-05-02T02:22:49.434Z,93966.60
2019-05-02T02:25:22.909Z,93965.59
2019-05-02T02:27:49.434Z,93958.66
2019-05-02T02:30:17.694Z,93967.90
2019-05-02T02:32:44.492Z,93956.56
2019-05-02T02:35:12.649Z,93960.39
2019-05-02T02:37:39.471Z,93956.50
2019-05-02T02:40:06.411Z,93958.55
2019-05-02T02:42:34.208Z,93958.66
2019-05-02T02:45:13.086Z,93960.64
2019-05-02T02:47:37.450Z,93954.27
2019-05-02T02:50:05.376Z,93955.94
2019-05-02T02:52:37.912Z,93955.09
2019-05-02T02:55:00.825Z,93952.84
2019-05-02T02:57:28.482Z,93950.28
2019-05-02T03:00:06.382Z,93949.98
2019-05-02T03:02:23.629Z,93943.31
2019-05-02T03:04:50.270Z,93947.91
2019-05-02T03:07:25.950Z,93948.83
2019-05-02T03:09:45.237Z,93950.45
2019-05-02T03:12:20.454Z,93944.13
2019-05-02T03:14:49.540Z,93939.48
2019-05-02T03:17:20.627Z,93938.67
2019-05-02T03:19:44.550Z,93939.48
2019-05-02T03:22:11.085Z,93936.48
2019-05-02T03:24:44.223Z,93935.77
2019-05-02T03:27:06.051Z,93936.40
2019-05-02T03:29:39.990Z,93936.81
2019-05-02T03:32:14.385Z,93930.86
2019-05-02T03:34:45.069Z,93931.67
2019-05-02T03:37:03.131Z,93936.58
2019-05-02T03:39:26.903Z,93933.81
2019-05-02T03:41:55.539Z,93939.59
2019-05-02T03:44:25.967Z,93933.12
2019-05-02T03:46:54.464Z,93928.08
2019-05-02T03:49:20.167Z,93936.19
2019-05-02T03:51:46.812Z,93935.14
2019-05-02T03:54:13.350Z,93934.42
2019-05-02T03:56:44.574Z,93935.74
2019-05-02T03:59:08.901Z,93934.19
2019-05-02T04:01:41.272Z,93935.92
2019-05-02T04:04:04.272Z,93930.07
2019-05-02T04:06:31.279Z,93928.32
2019-05-02T04:09:00.001Z,93935.47
2019-05-02T04:11:37.981Z,93930.95
2019-05-02T04:13:56.647Z,93931.12
2019-05-02T04:16:23.723Z,93927.75
2019-05-02T04:18:55.806Z,93931.32
2019-05-02T04:21:24.428Z,93932.98
2019-05-02T04:23:47.821Z,93931.97
2019-05-02T04:26:15.349Z,93933.30
2019-05-02T04:28:45.368Z,93935.63
2019-05-02T04:31:11.148Z,93937.58
2019-05-02T04:33:37.743Z,93926.25
2019-05-02T04:36:14.192Z,93926.25
2019-05-02T04:38:44.269Z,93931.23
2019-05-02T04:41:01.432Z,93934.11
2019-05-02T04:43:28.728Z,93931.02
2019-05-02T04:45:57.402Z,93931.20
2019-05-02T04:48:23.733Z,93929.06
2019-05-02T04:50:51.765Z,93935.11
2019-05-02T04:53:19.001Z,93932.31
2019-05-02T04:55:52.119Z,93932.27
2019-05-02T04:58:24.297Z,93935.89
2019-05-02T05:00:45.282Z,93936.84
2019-05-02T05:03:15.696Z,93936.97
2019-05-02T05:05:41.680Z,93934.02
2019-05-02T05:08:08.210Z,93931.48
2019-05-02T05:10:40.767Z,93932.20
2019-05-02T05:13:03.283Z,93936.66
2019-05-02T05:15:39.162Z,93939.95
2019-05-02T05:17:58.338Z,93936.77
2019-05-02T05:20:24.886Z,93941.29
2019-05-02T05:22:52.067Z,93940.88
2019-05-02T05:25:27.855Z,93940.69
2019-05-02T05:27:58.668Z,93935.05
2019-05-02T05:30:23.265Z,93938.41
2019-05-02T05:32:49.809Z,93940.98
2019-05-02T05:35:17.763Z,93937.78
2019-05-02T05:37:49.128Z,93935.14
2019-05-02T05:40:13.088Z,93943.09
2019-05-02T05:42:39.617Z,93947.66
2019-05-02T05:45:09.869Z,93944.22
2019-05-02T05:47:35.195Z,93948.56
2019-05-02T05:50:01.812Z,93949.63
2019-05-02T05:52:28.339Z,93944.95
2019-05-02T05:54:54.860Z,93949.63
2019-05-02T05:57:21.403Z,93945.53
2019-05-02T05:59:48.457Z,93942.72
2019-05-02T06:02:15.258Z,93941.14
2019-05-02T06:04:41.781Z,93945.95
2019-05-02T06:07:08.311Z,93941.08
2019-05-02T06:09:34.861Z,93947.41
2019-05-02T06:12:01.359Z,93938.36
2019-05-02T06:14:27.920Z,93942.78
2019-05-02T06:16:54.454Z,93944.38
2019-05-02T06:19:22.075Z,93945.57
2019-05-02T06:21:48.911Z,93944.96
2019-05-02T06:24:15.946Z,93948.39
2019-05-02T06:26:44.638Z,93946.15
2019-05-02T06:29:13.032Z,93944.37
2019-05-02T06:31:43.042Z,93944.77
2019-05-02T06:34:10.037Z,93943.52
2019-05-02T06:36:38.011Z,93937.89
2019-05-02T06:39:05.715Z,93944.53
2019-05-02T06:41:32.235Z,93937.88
2019-05-02T06:43:58.777Z,93936.48
2019-05-02T06:46:27.820Z,93935.74
2019-05-02T06:48:54.055Z,93936.95
2019-05-02T06:51:21.131Z,93935.45
2019-05-02T06:53:49.001Z,93935.73
2019-05-02T06:56:15.642Z,93936.41
2019-05-02T06:58:43.350Z,93935.12
2019-05-02T07:01:10.725Z,93936.67
2019-05-02T07:03:41.347Z,93936.62
2019-05-02T07:06:07.677Z,93940.22
2019-05-02T07:08:34.131Z,93932.98
2019-05-02T07:11:01.256Z,93937.05
2019-05-02T07:13:29.086Z,93935.53
2019-05-02T07:15:58.317Z,93933.95
2019-05-02T07:18:47.566Z,93935.19
2019-05-02T07:21:17.841Z,93934.10
2019-05-02T07:23:41.235Z,93934.37
2019-05-02T07:26:07.753Z,93939.48
2019-05-02T07:28:34.285Z,93932.91
2019-05-02T07:31:00.833Z,93934.75
2019-05-02T07:33:27.356Z,93938.23
2019-05-02T07:35:55.323Z,93939.31
2019-05-02T07:38:25.780Z,93925.38
2019-05-02T07:40:53.054Z,93931.31
2019-05-02T07:43:22.179Z,93924.38
2019-05-02T07:45:47.721Z,93940.89
2019-05-02T07:48:17.707Z,93931.19
2019-05-02T07:50:46.406Z,93932.45
2019-05-02T07:53:14.345Z,93936.22
2019-05-02T07:55:40.867Z,93937.18
2019-05-02T07:58:08.431Z,93929.38
2019-05-02T08:00:37.098Z,93933.27
2019-05-02T08:03:05.176Z,93940.15
2019-05-02T08:05:31.863Z,93939.31
2019-05-02T08:07:58.384Z,93933.09
2019-05-02T08:10:25.018Z,93936.86
2019-05-02T08:12:51.537Z,93935.25
2019-05-02T08:15:18.102Z,93927.05
2019-05-02T08:17:53.155Z,93929.88
2019-05-02T08:20:19.162Z,93930.88
2019-05-02T08:22:44.053Z,93934.32
2019-05-02T08:25:11.670Z,93929.83
2019-05-02T08:27:40.368Z,93933.91
2019-05-02T08:30:11.005Z,93936.02
2019-05-02T08:32:37.526Z,93937.08
2019-05-02T08:35:05.787Z,93933.94
2019-05-02T08:37:40.451Z,93939.63
2019-05-02T08:40:10.412Z,93940.97
2019-05-02T08:42:34.078Z,93942.88
2019-05-02T08:45:01.440Z,93937.95
2019-05-02T08:47:30.553Z,93938.88
2019-05-02T08:49:57.526Z,93942.05
2019-05-02T08:52:24.141Z,93938.70
2019-05-02T08:54:50.750Z,93934.31
2019-05-02T08:57:17.359Z,93926.02
2019-05-02T08:59:43.914Z,93930.38
2019-05-02T09:02:10.460Z,93925.33
2019-05-02T09:04:37.021Z,93922.03
2019-05-02T09:07:04.291Z,93926.87
2019-05-02T09:09:30.900Z,93915.98
2019-05-02T09:12:08.693Z,93920.20
2019-05-02T09:14:26.304Z,93921.31
2019-05-02T09:16:53.043Z,93917.48
2019-05-02T09:19:24.418Z,93919.18
2019-05-02T09:21:48.981Z,93915.08
2019-05-02T09:24:20.921Z,93920.22
2019-05-02T09:26:44.177Z,93915.79
2019-05-02T09:29:12.495Z,93921.70
2019-05-02T09:31:42.256Z,93915.28
2019-05-02T09:34:07.873Z,93911.06
2019-05-02T09:36:34.514Z,93910.83
2019-05-02T09:39:02.642Z,93922.00
2019-05-02T09:41:34.463Z,93915.97
2019-05-02T09:43:57.921Z,93908.48
2019-05-02T09:46:24.523Z,93904.17
2019-05-02T09:48:51.965Z,93908.33
2019-05-02T09:51:18.776Z,93895.63
2019-05-02T09:53:45.445Z,93898.52
2019-05-02T09:56:12.808Z,93896.39
2019-05-02T09:58:39.567Z,93902.34
2019-05-02T10:01:24.970Z,93887.91
2019-05-02T10:03:51.928Z,93889.55
2019-05-02T10:06:19.305Z,93882.91
2019-05-02T10:08:46.740Z,93890.03
2019-05-02T10:11:16.869Z,93884.15
2019-05-02T10:13:42.492Z,93884.43
2019-05-02T10:16:11.781Z,93874.98
2019-05-02T10:18:38.438Z,93875.12
2019-05-02T10:21:07.924Z,93884.02
2019-05-02T10:23:33.908Z,93875.47
2019-05-02T10:26:02.709Z,93868.02
2019-05-02T10:28:29.106Z,93873.33
2019-05-02T10:30:56.877Z,93876.67
2019-05-02T10:33:28.031Z,93879.02
2019-05-02T10:35:52.632Z,93876.66
2019-05-02T10:38:19.648Z,93866.28
2019-05-02T10:40:48.291Z,93866.70
2019-05-02T10:43:14.662Z,93862.41
2019-05-02T10:45:47.529Z,93868.63
2019-05-02T10:48:24.939Z,93857.52
2019-05-02T10:50:43.243Z,93851.37
2019-05-02T10:53:12.215Z,93853.09
2019-05-02T10:55:38.226Z,93840.17
2019-05-02T10:58:04.775Z,93854.03
2019-05-02T11:00:33.222Z,93847.73
2019-05-02T11:03:12.100Z,93833.54
2019-05-02T11:05:42.030Z,93838.48
2019-05-02T11:08:08.618Z,93849.48
2019-05-02T11:10:35.155Z,93840.34
2019-05-02T11:13:10.148Z,93845.78
2019-05-02T11:15:55.029Z,93833.91
2019-05-02T11:18:38.809Z,93834.80
2019-05-02T11:20:52.386Z,93833.63
2019-05-02T11:23:19.106Z,93824.83
2019-05-02T11:25:45.724Z,93831.70
2019-05-02T11:28:12.409Z,93822.37
2019-05-02T11:30:39.257Z,93823.98
2019-05-02T11:33:05.802Z,93822.84
2019-05-02T11:35:34.734Z,93820.14
2019-05-02T11:38:02.525Z,93837.69
2019-05-02T11:40:29.208Z,93837.94
2019-05-02T11:42:57.310Z,93832.22
2019-05-02T11:45:24.475Z,93829.27
2019-05-02T11:47:54.469Z,93822.12
2019-05-02T11:50:19.449Z,93825.49
2019-05-02T11:52:45.986Z,93822.16
2019-05-02T11:55:13.140Z,93814.86
2019-05-02T11:57:39.714Z,93823.61
2019-05-02T12:00:08.980Z,93831.08
2019-05-02T12:02:35.693Z,93829.08
2019-05-02T12:05:04.810Z,93809.45
2019-05-02T12:07:32.433Z,93806.96
2019-05-02T12:10:02.638Z,93810.56
2019-05-02T12:12:34.356Z,93817.58
2019-05-02T12:14:55.958Z,93826.72
2019-05-02T12:17:22.794Z,93825.27
2019-05-02T12:19:49.525Z,93815.40
2019-05-02T12:22:16.961Z,93804.83
2019-05-02T12:24:45.308Z,93813.34
2019-05-02T12:27:12.211Z,93810.73
2019-05-02T12:29:38.750Z,93811.13
2019-05-02T12:32:05.550Z,93817.58
2019-05-02T12:34:32.576Z,93815.70
2019-05-02T12:36:59.313Z,93812.73
2019-05-02T12:39:25.846Z,93808.53
2019-05-02T12:41:53.650Z,93794.63
2019-05-02T12:44:22.286Z,93797.37
2019-05-02T12:46:49.019Z,93787.19
2019-05-02T12:49:24.382Z,93789.02
2019-05-02T12:51:43.989Z,93798.49
2019-05-02T12:54:12.394Z,93781.86
2019-05-02T12:56:39.091Z,93786.77
2019-05-02T12:59:05.671Z,93789.59
2019-05-02T13:01:33.109Z,93793.16
2019-05-02T13:04:02.881Z,93787.16
2019-05-02T13:06:29.571Z,93780.81
2019-05-02T13:08:56.112Z,93784.49
2019-05-02T13:11:26.839Z,93768.44
2019-05-02T13:13:53.681Z,93778.23
2019-05-02T13:16:20.349Z,93771.91
2019-05-02T13:18:47.084Z,93775.50
2019-05-02T13:21:17.054Z,93770.41
2019-05-02T13:23:45.651Z,93753.23
2019-05-02T13:26:19.657Z,93760.09
2019-05-02T13:28:42.382Z,93749.86
2019-05-02T13:31:11.772Z,93751.54
2019-05-02T13:33:46.112Z,93753.92
2019-05-02T13:36:29.904Z,93744.19
2019-05-02T13:38:56.433Z,93734.31
2019-05-02T13:41:22.962Z,93739.02
2019-05-02T13:43:52.454Z,93738.40
2019-05-02T13:46:22.043Z,93740.10
2019-05-02T13:48:48.647Z,93743.95
2019-05-02T13:51:15.188Z,93743.37
2019-05-02T13:53:43.609Z,93729.01
2019-05-02T13:56:18.910Z,93720.99
2019-05-02T13:58:45.529Z,93724.06
2019-05-02T14:01:13.368Z,93717.66
2019-05-02T14:03:41.975Z,93708.29
2019-05-02T14:06:08.941Z,93714.97
2019-05-02T14:08:40.180Z,93714.67
2019-05-02T14:11:06.718Z,93711.06
2019-05-02T14:13:33.239Z,93709.91
2019-05-02T14:15:59.771Z,93710.75
2019-05-02T14:18:29.066Z,93699.86
2019-05-02T14:20:56.361Z,93690.89
2019-05-02T14:23:23.224Z,93698.94
2019-05-02T14:25:51.929Z,93705.06
2019-05-02T14:28:18.942Z,93699.12
2019-05-02T14:30:46.384Z,93697.77
2019-05-02T14:33:15.760Z,93705.16
2019-05-02T14:35:44.523Z,93700.59
2019-05-02T14:38:15.843Z,93706.24
2019-05-02T14:41:08.299Z,93705.81
2019-05-02T14:43:53.041Z,93702.98
2019-05-02T14:46:22.118Z,93708.66
2019-05-02T14:48:49.716Z,93714.38
2019-05-02T14:51:21.637Z,93712.33
2019-05-02T14:53:44.993Z,93713.19
2019-05-02T14:56:19.586Z,93721.58
2019-05-02T14:58:46.218Z,93722.79
2019-05-02T15:01:17.205Z,93723.50
2019-05-02T15:03:42.385Z,93736.98
2019-05-02T15:06:09.075Z,93739.11
2019-05-02T15:08:36.899Z,93733.48
2019-05-02T15:11:04.354Z,93733.09
2019-05-02T15:13:32.308Z,93740.83
2019-05-02T15:16:02.346Z,93743.52
2019-05-02T15:18:28.629Z,93746.78
2019-05-02T15:20:55.152Z,93724.70
2019-05-02T15:23:22.774Z,93729.72
2019-05-02T15:25:52.516Z,93720.89
2019-05-02T15:28:22.693Z,93723.68
2019-05-02T15:30:53.729Z,93724.38
2019-05-02T15:33:22.286Z,93719.74
2019-05-02T15:35:52.565Z,93718.02
2019-05-02T15:38:27.257Z,93723.11
2019-05-02T15:40:51.171Z,93736.64
2019-05-02T15:43:16.407Z,93746.64
2019-05-02T15:45:45.214Z,93740.86
2019-05-02T15:48:16.075Z,93754.31
2019-05-02T15:50:51.613Z,93755.16
2019-05-02T15:53:19.085Z,93754.84
2019-05-02T15:55:45.603Z,93755.06
2019-05-02T15:58:16.923Z,93749.31
2019-05-02T16:00:46.285Z,93750.23
2019-05-02T16:03:12.936Z,93746.34
2019-05-02T16:05:41.161Z,93741.72
2019-05-02T16:08:09.011Z,93741.31
2019-05-02T16:10:38.630Z,93741.42
2019-05-02T16:13:08.718Z,93741.23
2019-05-02T16:15:34.612Z,93736.31
2019-05-02T16:18:05.104Z,93737.98
2019-05-02T16:20:48.814Z,93730.59
2019-05-02T16:23:18.994Z,93726.30
2019-05-02T16:25:43.560Z,93722.41
2019-05-02T16:28:12.697Z,93709.48
2019-05-02T16:30:44.150Z,93709.20
2019-05-02T16:33:17.379Z,93706.22
2019-05-02T16:35:38.081Z,93697.81
2019-05-02T16:38:04.673Z,93715.14
2019-05-02T16:40:32.826Z,93712.48
2019-05-02T16:42:59.728Z,93717.89
2019-05-02T16:45:26.258Z,93714.61
2019-05-02T16:47:58.597Z,93711.94
2019-05-02T16:50:22.902Z,93711.20
2019-05-02T16:52:49.638Z,93711.08
2019-05-02T16:55:20.965Z,93704.30
2019-05-02T16:57:45.218Z,93710.33
2019-05-02T17:00:15.551Z,93705.24
2019-05-02T17:02:46.156Z,93707.84
2019-05-02T17:05:12.070Z,93713.58
2019-05-02T17:07:57.159Z,93710.00
2019-05-02T17:10:25.618Z,93707.27
2019-05-02T17:12:56.971Z,93704.38
2019-05-02T17:15:26.264Z,93704.50
2019-05-02T17:17:56.075Z,93704.72
2019-05-02T17:20:22.622Z,93702.77
2019-05-02T17:22:50.366Z,93706.09
2019-05-02T17:25:17.562Z,93708.31
2019-05-02T17:27:44.097Z,93706.25
2019-05-02T17:30:12.034Z,93702.77
2019-05-02T17:32:38.804Z,93700.84
2019-05-02T17:35:09.909Z,93707.00
2019-05-02T17:37:34.397Z,93700.52
2019-05-02T17:40:02.539Z,93702.87
2019-05-02T17:42:29.070Z,93699.93
2019-05-02T17:44:59.377Z,93712.34
2019-05-02T17:47:24.148Z,93711.33
2019-05-02T17:49:52.944Z,93709.89
2019-05-02T17:52:26.811Z,93698.51
2019-05-02T17:54:49.847Z,93699.22
2019-05-02T17:57:16.370Z,93696.36
2019-05-02T17:59:42.907Z,93689.70
2019-05-02T18:02:12.341Z,93706.59
2019-05-02T18:04:37.929Z,93704.23
2019-05-02T18:07:04.549Z,93706.94
2019-05-02T18:09:34.952Z,93705.72
2019-05-02T18:12:01.477Z,93704.17
2019-05-02T18:14:27.975Z,93707.98
2019-05-02T18:16:55.685Z,93713.48
2019-05-02T18:19:24.594Z,93713.30
2019-05-02T18:21:52.535Z,93717.08
2019-05-02T18:24:19.247Z,93718.11
2019-05-02T18:26:45.785Z,93711.75
2019-05-02T18:29:14.079Z,93712.37
2019-05-02T18:31:47.358Z,93707.84
2019-05-02T18:34:14.354Z,93713.59
2019-05-02T18:36:37.915Z,93712.78
2019-05-02T18:39:06.596Z,93710.94
2019-05-02T18:41:37.422Z,93712.05
2019-05-02T18:44:02.822Z,93716.75
2019-05-02T18:46:29.442Z,93716.56
2019-05-02T18:48:56.066Z,93712.24
2019-05-02T18:51:22.609Z,93721.77
2019-05-02T18:53:49.137Z,93725.55
2019-05-02T18:56:15.686Z,93722.25
2019-05-02T18:58:45.080Z,93727.81
2019-05-02T19:01:15.914Z,93736.53
2019-05-02T19:03:39.333Z,93746.50
2019-05-02T19:06:05.973Z,93742.06
2019-05-02T19:08:45.394Z,93747.19
2019-05-02T19:11:11.645Z,93749.95
2019-05-02T19:13:37.571Z,93757.70
2019-05-02T19:16:02.815Z,93759.31
2019-05-02T19:18:32.339Z,93762.62
2019-05-02T19:21:00.000Z,93770.20
2019-05-02T19:23:26.741Z,93769.03
2019-05-02T19:25:53.274Z,93760.61
2019-05-02T19:28:38.478Z,93757.41
2019-05-02T19:31:06.886Z,93757.30
2019-05-02T19:33:37.517Z,93755.39
2019-05-02T19:36:02.782Z,93760.40
2019-05-02T19:38:29.605Z,93767.89
2019-05-02T19:40:58.213Z,93772.42
2019-05-02T19:43:24.593Z,93782.40
2019-05-02T19:45:53.909Z,93788.20
2019-05-02T19:48:19.559Z,93786.16
2019-05-02T19:50:46.182Z,93784.45
2019-05-02T19:53:18.103Z,93772.72
2019-05-02T19:55:42.994Z,93768.31
2019-05-02T19:58:10.099Z,93776.56
2019-05-02T20:00:41.570Z,93768.75
2019-05-02T20:03:05.286Z,93761.08
2019-05-02T20:05:32.316Z,93770.47
2019-05-02T20:07:58.968Z,93768.53
2019-05-02T20:10:25.715Z,93760.71
2019-05-02T20:12:52.861Z,93765.48
2019-05-02T20:15:25.435Z,93766.57
2019-05-02T20:17:55.309Z,93762.67
2019-05-02T20:20:54.084Z,93767.17
2019-05-02T20:23:28.652Z,93763.77
2019-05-02T20:25:49.374Z,93764.67
2019-05-02T20:28:15.903Z,93774.36
2019-05-02T20:30:42.685Z,93766.12
2019-05-02T20:33:09.232Z,93764.91
2019-05-02T20:35:36.052Z,93763.64
2019-05-02T20:38:02.784Z,93761.89
2019-05-02T20:40:32.098Z,93763.52
2019-05-02T20:42:59.636Z,93763.43
2019-05-02T20:45:26.820Z,93767.89
2019-05-02T20:47:54.099Z,93761.89
2019-05-02T20:50:22.391Z,93768.74
2019-05-02T20:52:48.972Z,93769.95
2019-05-02T20:55:15.811Z,93767.11
2019-05-02T20:57:42.448Z,93767.45
2019-05-02T21:00:26.427Z,93759.14
2019-05-02T21:02:53.077Z,93767.02
2019-05-02T21:05:23.999Z,93774.27
2019-05-02T21:07:52.403Z,93770.25
2019-05-02T21:10:21.762Z,93775.66
2019-05-02T21:12:48.401Z,93767.98
2019-05-02T21:15:15.023Z,93775.31
2019-05-02T21:17:42.210Z,93775.27
2019-05-02T21:20:09.408Z,93769.13
2019-05-02T21:22:35.939Z,93775.05
2019-05-02T21:25:05.273Z,93772.91
2019-05-02T21:27:32.407Z,93776.80
2019-05-02T21:29:59.129Z,93776.20
2019-05-02T21:32:25.670Z,93774.36
2019-05-02T21:34:52.199Z,93778.08
2019-05-02T21:37:18.735Z,93788.97
2019-05-02T21:39:45.259Z,93777.02
2019-05-02T21:42:11.798Z,93778.52
2019-05-02T21:44:38.326Z,93773.33
2019-05-02T21:47:05.817Z,93779.02
2019-05-02T21:49:46.289Z,93776.41
2019-05-02T21:52:22.585Z,93773.87
2019-05-02T21:54:57.029Z,93776.66
2019-05-02T21:57:23.877Z,93777.20
2019-05-02T21:59:52.412Z,93783.52
2019-05-02T22:02:19.227Z,93780.40
2019-05-02T22:04:45.762Z,93785.80
2019-05-02T22:07:12.394Z,93790.73
2019-05-02T22:09:39.136Z,93784.89
2019-05-02T22:12:05.759Z,93783.52
2019-05-02T22:14:32.950Z,93780.85
2019-05-02T22:16:59.530Z,93780.64
2019-05-02T22:19:26.062Z,93791.52
2019-05-02T22:21:53.278Z,93784.08
2019-05-02T22:24:19.820Z,93785.23
2019-05-02T22:26:46.344Z,93782.33
2019-05-02T22:29:12.881Z,93785.50
2019-05-02T22:31:39.406Z,93777.83
2019-05-02T22:34:05.955Z,93781.94
2019-05-02T22:36:32.928Z,93785.28
2019-05-02T22:39:02.127Z,93792.20
2019-05-02T22:41:28.654Z,93793.36
2019-05-02T22:43:55.184Z,93794.00
2019-05-02T22:46:42.873Z,93792.03
2019-05-02T22:49:11.887Z,93795.33
2019-05-02T22:51:38.960Z,93792.51
2019-05-02T22:54:06.198Z,93789.98
2019-05-02T22:56:32.924Z,93792.76
2019-05-02T22:58:59.469Z,93792.83
2019-05-02T23:01:25.994Z,93792.71
2019-05-02T23:03:52.542Z,93787.91
2019-05-02T23:06:19.160Z,93788.16
2019-05-02T23:08:45.958Z,93787.78
2019-05-02T23:11:12.982Z,93788.77
2019-05-02T23:13:39.618Z,93785.17
2019-05-02T23:16:06.149Z,93791.30
2019-05-02T23:18:32.694Z,93786.25
2019-05-02T23:20:59.227Z,93793.14
2019-05-02T23:23:25.878Z,93789.98
2019-05-02T23:26:00.653Z,93784.66
2019-05-02T23:28:29.079Z,93787.07
2019-05-02T23:30:55.621Z,93782.19
2019-05-02T23:33:24.067Z,93778.59
2019-05-02T23:35:52.128Z,93784.54
2019-05-02T23:38:18.715Z,93783.34
2019-05-02T23:40:45.358Z,93785.48
2019-05-02T23:43:12.494Z,93787.45
2019-05-02T23:45:39.321Z,93783.52
2019-05-02T23:48:05.851Z,93775.16
2019-05-02T23:50:32.519Z,93777.52
2019-05-02T23:52:59.044Z,93778.92
2019-05-02T23:55:25.697Z,93771.65
2019-05-02T23:57:52.415Z,93777.59
